createdAt,value
2018-08-12T00:03:29.124Z,23.10
2018-08-12T00:05:59.699Z,22.90
2018-08-12T00:08:30.389Z,22.90
2018-08-12T00:11:01.364Z,22.80
2018-08-12T00:13:32.510Z,22.80
2018-08-12T00:16:03.193Z,22.60
2018-08-12T00:18:33.900Z,22.50
2018-08-12T00:21:04.644Z,22.50
2018-08-12T00:23:35.320Z,22.50
2018-08-12T00:26:06.196Z,22.40
2018-08-12T00:31:54.433Z,22.30
2018-08-12T00:34:25.486Z,22.20
2018-08-12T00:36:56.568Z,22.10
2018-08-12T00:39:27.773Z,22.10
2018-08-12T00:41:58.816Z,22.00
2018-08-12T00:44:29.891Z,22.00
2018-08-12T00:47:00.936Z,22.00
2018-08-12T00:52:38.610Z,21.90
2018-08-12T00:55:10.104Z,21.90
2018-08-12T00:57:40.737Z,21.80
2018-08-12T01:03:18.561Z,21.70
2018-08-12T01:05:49.394Z,21.60
2018-08-12T01:08:48.587Z,21.60
2018-08-12T01:11:19.483Z,21.60
2018-08-12T01:13:50.433Z,21.50
2018-08-12T01:16:21.354Z,21.50
2018-08-12T01:21:59.377Z,21.40
2018-08-12T01:24:30.302Z,21.30
2018-08-12T01:27:01.139Z,21.20
2018-08-12T01:29:32.071Z,21.10
2018-08-12T01:32:03.091Z,21.10
2018-08-12T01:34:34.105Z,21.00
2018-08-12T01:37:05.416Z,21.00
2018-08-12T01:39:36.504Z,20.90
2018-08-12T01:42:07.565Z,20.80
2018-08-12T01:44:39.143Z,20.70
2018-08-12T01:47:10.278Z,20.60
2018-08-12T01:49:41.161Z,20.50
2018-08-12T01:52:12.272Z,20.50
2018-08-12T01:54:43.145Z,20.40
2018-08-12T01:57:14.099Z,20.40
2018-08-12T01:59:45.515Z,20.30
2018-08-12T02:02:16.388Z,20.20
2018-08-12T02:04:47.236Z,20.10
2018-08-12T02:07:18.085Z,20.10
2018-08-12T02:09:48.973Z,20.10
2018-08-12T02:12:20.144Z,20.00
2018-08-12T02:14:51.002Z,20.00
2018-08-12T02:17:21.903Z,20.00
2018-08-12T02:19:52.733Z,20.00
2018-08-12T02:22:23.754Z,20.00
2018-08-12T02:24:54.758Z,20.00
2018-08-12T02:27:25.861Z,20.00
2018-08-12T02:29:56.915Z,20.10
2018-08-12T02:32:27.724Z,20.00
2018-08-12T02:34:58.553Z,20.00
2018-08-12T02:37:29.622Z,20.00
2018-08-12T02:40:01.047Z,19.90
2018-08-12T02:42:31.896Z,19.80
2018-08-12T02:45:03.043Z,19.80
2018-08-12T02:47:34.075Z,19.80
2018-08-12T02:50:04.941Z,19.70
2018-08-12T02:52:35.848Z,19.70
2018-08-12T02:55:07.470Z,19.60
2018-08-12T02:57:38.444Z,19.60
2018-08-12T03:00:10.209Z,19.60
2018-08-12T03:02:41.317Z,19.50
2018-08-12T03:05:12.849Z,19.50
2018-08-12T03:07:43.999Z,19.40
2018-08-12T03:10:15.056Z,19.40
2018-08-12T03:12:45.897Z,19.30
2018-08-12T03:15:17.120Z,19.30
2018-08-12T03:17:48.106Z,19.30
2018-08-12T03:20:19.053Z,19.30
2018-08-12T03:22:49.951Z,19.20
2018-08-12T03:25:20.914Z,19.20
2018-08-12T03:30:58.936Z,19.20
2018-08-12T03:33:29.908Z,19.10
2018-08-12T03:36:00.826Z,19.10
2018-08-12T03:41:39.056Z,19.00
2018-08-12T03:44:10.407Z,18.90
2018-08-12T03:46:41.518Z,18.90
2018-08-12T03:49:12.477Z,18.90
2018-08-12T03:51:43.459Z,18.80
2018-08-12T03:54:14.395Z,18.80
2018-08-12T03:56:45.882Z,18.70
2018-08-12T03:59:17.151Z,18.70
2018-08-12T04:01:48.410Z,18.60
2018-08-12T04:07:25.962Z,18.60
2018-08-12T04:09:56.669Z,18.60
2018-08-12T04:12:27.447Z,18.50
2018-08-12T04:14:58.119Z,18.50
2018-08-12T04:17:30.674Z,18.40
2018-08-12T04:20:03.312Z,18.40
2018-08-12T04:22:34.089Z,18.40
2018-08-12T04:25:04.931Z,18.40
2018-08-12T04:27:37.677Z,18.50
2018-08-12T04:30:11.958Z,18.40
2018-08-12T04:32:44.635Z,18.40
2018-08-12T04:35:17.682Z,18.30
2018-08-12T04:37:50.599Z,18.30
2018-08-12T04:40:23.104Z,18.40
2018-08-12T04:42:56.231Z,18.40
2018-08-12T04:48:49.429Z,18.40
2018-08-12T04:51:22.010Z,18.40
2018-08-12T04:53:54.624Z,18.40
2018-08-12T04:56:25.451Z,18.40
2018-08-12T04:58:58.268Z,18.20
2018-08-12T05:04:51.375Z,18.00
2018-08-12T05:07:23.719Z,17.90
2018-08-12T05:09:56.024Z,17.80
2018-08-12T05:12:28.458Z,17.70
2018-08-12T05:15:00.753Z,17.70
2018-08-12T05:17:33.226Z,17.70
2018-08-12T05:20:05.867Z,17.70
2018-08-12T05:22:38.213Z,17.70
2018-08-12T05:25:10.650Z,17.70
2018-08-12T05:27:43.831Z,17.70
2018-08-12T05:30:16.496Z,17.70
2018-08-12T05:32:49.312Z,17.70
2018-08-12T05:35:21.796Z,17.70
2018-08-12T05:37:54.214Z,17.70
2018-08-12T05:40:26.602Z,17.70
2018-08-12T05:42:58.913Z,17.60
2018-08-12T05:45:31.363Z,17.60
2018-08-12T05:48:03.822Z,17.60
2018-08-12T05:53:57.977Z,17.40
2018-08-12T05:56:30.764Z,17.30
2018-08-12T05:59:03.695Z,17.30
2018-08-12T06:01:36.456Z,17.30
2018-08-12T06:04:09.402Z,17.30
2018-08-12T06:06:42.172Z,17.20
2018-08-12T06:09:15.190Z,17.20
2018-08-12T06:11:48.053Z,17.10
2018-08-12T06:14:21.008Z,17.10
2018-08-12T06:16:53.762Z,17.00
2018-08-12T06:19:26.544Z,17.00
2018-08-12T06:21:59.257Z,16.90
2018-08-12T06:24:32.041Z,16.90
2018-08-12T06:27:04.806Z,16.90
2018-08-12T06:29:37.773Z,16.90
2018-08-12T06:32:10.621Z,17.00
2018-08-12T06:34:43.406Z,17.00
2018-08-12T06:37:16.968Z,16.90
2018-08-12T06:39:54.226Z,16.90
2018-08-12T06:42:28.464Z,17.00
2018-08-12T06:45:01.583Z,17.00
2018-08-12T06:51:02.837Z,17.10
2018-08-12T06:53:35.518Z,17.10
2018-08-12T06:56:10.271Z,17.10
2018-08-12T06:58:42.959Z,17.10
2018-08-12T07:01:15.545Z,17.10
2018-08-12T07:03:48.892Z,17.10
2018-08-12T07:06:21.366Z,17.10
2018-08-12T07:08:53.889Z,17.10
2018-08-12T07:11:26.383Z,17.10
2018-08-12T07:17:20.063Z,17.10
2018-08-12T07:19:52.553Z,17.10
2018-08-12T07:22:24.962Z,17.10
2018-08-12T07:24:57.361Z,17.20
2018-08-12T07:27:29.918Z,17.20
2018-08-12T07:30:02.413Z,17.20
2018-08-12T07:32:35.011Z,17.20
2018-08-12T07:35:08.733Z,17.20
2018-08-12T07:37:42.247Z,17.20
2018-08-12T07:40:20.594Z,17.10
2018-08-12T07:46:14.651Z,17.00
2018-08-12T07:48:47.382Z,17.00
2018-08-12T07:54:51.636Z,16.90
2018-08-12T07:57:23.896Z,16.80
2018-08-12T07:59:56.345Z,16.80
2018-08-12T08:02:28.717Z,16.90
2018-08-12T08:05:00.977Z,17.00
2018-08-12T08:07:57.345Z,17.00
2018-08-12T08:10:29.693Z,17.00
2018-08-12T08:13:02.057Z,17.00
2018-08-12T08:15:35.190Z,17.00
2018-08-12T08:18:07.970Z,17.00
2018-08-12T08:20:40.574Z,17.00
2018-08-12T08:23:13.155Z,17.10
2018-08-12T08:25:45.695Z,17.10
2018-08-12T08:28:18.149Z,17.10
2018-08-12T08:30:50.521Z,17.10
2018-08-12T08:33:23.033Z,17.10
2018-08-12T08:35:55.684Z,17.10
2018-08-12T08:38:28.802Z,17.10
2018-08-12T08:41:01.210Z,17.00
2018-08-12T08:43:33.559Z,17.00
2018-08-12T08:46:06.053Z,17.00
2018-08-12T08:52:00.325Z,16.90
2018-08-12T08:54:32.840Z,16.80
2018-08-12T08:57:05.189Z,16.80
2018-08-12T08:59:37.641Z,16.80
2018-08-12T09:02:10.232Z,16.80
2018-08-12T09:04:42.894Z,16.70
2018-08-12T09:07:15.746Z,16.70
2018-08-12T09:09:48.388Z,16.70
2018-08-12T09:12:20.926Z,16.70
2018-08-12T09:14:53.296Z,16.70
2018-08-12T09:17:25.864Z,16.70
2018-08-12T09:19:58.357Z,16.80
2018-08-12T09:22:30.861Z,16.80
2018-08-12T09:25:03.516Z,16.90
2018-08-12T09:27:35.904Z,16.90
2018-08-12T09:30:16.682Z,17.00
2018-08-12T09:32:50.064Z,17.00
2018-08-12T09:35:22.672Z,17.00
2018-08-12T09:37:55.323Z,17.00
2018-08-12T09:40:28.386Z,17.00
2018-08-12T09:43:00.941Z,17.00
2018-08-12T09:45:33.418Z,17.00
2018-08-12T09:48:06.060Z,16.90
2018-08-12T09:50:38.484Z,16.90
2018-08-12T09:53:10.897Z,16.90
2018-08-12T09:55:43.459Z,16.90
2018-08-12T09:58:15.849Z,16.90
2018-08-12T10:00:48.294Z,16.80
2018-08-12T10:03:20.923Z,16.80
2018-08-12T10:05:53.528Z,16.70
2018-08-12T10:08:25.901Z,16.70
2018-08-12T10:10:58.430Z,16.70
2018-08-12T10:13:30.940Z,16.70
2018-08-12T10:16:03.750Z,16.70
2018-08-12T10:18:36.452Z,16.70
2018-08-12T10:21:09.521Z,16.70
2018-08-12T10:23:42.046Z,16.80
2018-08-12T10:26:14.711Z,16.80
2018-08-12T10:28:47.513Z,16.80
2018-08-12T10:31:20.118Z,16.70
2018-08-12T10:33:52.738Z,16.70
2018-08-12T10:36:25.372Z,16.60
2018-08-12T10:38:57.895Z,16.50
2018-08-12T10:41:30.368Z,16.50
2018-08-12T10:44:02.748Z,16.40
2018-08-12T10:46:35.391Z,16.30
2018-08-12T10:49:08.019Z,16.40
2018-08-12T10:51:40.619Z,16.30
2018-08-12T10:54:13.576Z,16.30
2018-08-12T10:56:46.319Z,16.30
2018-08-12T10:59:20.006Z,16.30
2018-08-12T11:01:52.653Z,16.30
2018-08-12T11:04:25.101Z,16.20
2018-08-12T11:06:57.917Z,16.20
2018-08-12T11:12:51.858Z,16.20
2018-08-12T11:15:24.262Z,16.20
2018-08-12T11:17:56.703Z,16.20
2018-08-12T11:20:29.251Z,16.20
2018-08-12T11:23:01.570Z,16.10
2018-08-12T11:25:33.806Z,16.10
2018-08-12T11:28:06.331Z,16.10
2018-08-12T11:30:38.824Z,16.10
2018-08-12T11:33:11.150Z,16.10
2018-08-12T11:35:43.539Z,16.10
2018-08-12T11:38:16.001Z,16.10
2018-08-12T11:40:48.401Z,16.10
2018-08-12T11:43:21.282Z,16.10
2018-08-12T11:45:53.704Z,16.10
2018-08-12T11:48:25.962Z,16.10
2018-08-12T11:50:58.202Z,16.00
2018-08-12T11:53:58.559Z,16.00
2018-08-12T11:56:31.322Z,16.00
2018-08-12T11:59:03.789Z,16.10
2018-08-12T12:01:36.268Z,16.10
2018-08-12T12:04:08.765Z,16.00
2018-08-12T12:06:41.231Z,16.10
2018-08-12T12:09:14.034Z,16.10
2018-08-12T12:11:46.600Z,16.00
2018-08-12T12:14:18.973Z,16.10
2018-08-12T12:16:51.618Z,16.10
2018-08-12T12:22:50.629Z,16.40
2018-08-12T12:25:23.664Z,16.50
2018-08-12T12:27:56.272Z,16.50
2018-08-12T12:30:28.774Z,16.50
2018-08-12T12:33:01.205Z,16.60
2018-08-12T12:35:33.751Z,16.80
2018-08-12T12:38:06.328Z,17.00
2018-08-12T12:40:38.746Z,17.20
2018-08-12T12:43:12.166Z,17.20
2018-08-12T12:45:44.643Z,17.30
2018-08-12T12:48:17.361Z,17.60
2018-08-12T12:50:49.685Z,17.90
2018-08-12T12:53:22.898Z,18.50
2018-08-12T12:55:56.491Z,19.20
2018-08-12T12:58:30.944Z,19.80
2018-08-12T13:04:24.688Z,20.20
2018-08-12T13:06:58.433Z,20.70
2018-08-12T13:09:30.654Z,20.80
2018-08-12T13:12:03.334Z,20.90
2018-08-12T13:14:35.840Z,20.90
2018-08-12T13:17:08.299Z,20.80
2018-08-12T13:20:12.961Z,21.20
2018-08-12T13:22:46.913Z,21.40
2018-08-12T13:28:38.934Z,21.50
2018-08-12T13:34:17.063Z,22.00
2018-08-12T13:36:48.358Z,21.60
2018-08-12T13:39:18.821Z,21.00
2018-08-12T13:41:50.410Z,20.40
2018-08-12T13:44:20.974Z,20.00
2018-08-12T13:46:52.837Z,19.80
2018-08-12T13:49:23.780Z,19.70
2018-08-12T13:51:54.263Z,19.90
2018-08-12T13:54:24.747Z,20.10
2018-08-12T13:56:55.337Z,20.50
2018-08-12T13:59:25.797Z,20.80
2018-08-12T14:01:56.677Z,20.50
2018-08-12T14:04:27.250Z,20.80
2018-08-12T14:06:57.831Z,21.70
2018-08-12T14:09:28.368Z,22.40
2018-08-12T14:11:58.733Z,22.90
2018-08-12T14:14:29.218Z,23.40
2018-08-12T14:16:59.650Z,23.90
2018-08-12T14:19:30.267Z,23.60
2018-08-12T14:22:00.706Z,23.80
2018-08-12T14:24:31.127Z,24.00
2018-08-12T14:27:01.870Z,23.90
2018-08-12T14:29:32.283Z,24.40
2018-08-12T14:32:02.721Z,24.30
2018-08-12T14:34:34.936Z,24.10
2018-08-12T14:37:05.624Z,24.30
2018-08-12T14:39:36.312Z,23.70
2018-08-12T14:42:08.720Z,23.40
2018-08-12T14:44:39.222Z,23.60
2018-08-12T14:47:13.704Z,24.00
2018-08-12T14:49:46.629Z,25.00
2018-08-12T14:52:18.083Z,24.70
2018-08-12T14:54:51.035Z,25.10
2018-08-12T14:57:23.504Z,24.40
2018-08-12T14:59:53.948Z,24.70
2018-08-12T15:02:24.288Z,24.90
2018-08-12T15:04:54.920Z,24.60
2018-08-12T15:07:25.411Z,24.50
2018-08-12T15:09:55.979Z,24.60
2018-08-12T15:12:26.446Z,24.80
2018-08-12T15:14:56.894Z,25.10
2018-08-12T15:17:29.065Z,25.50
2018-08-12T15:19:59.651Z,25.30
2018-08-12T15:22:30.063Z,26.00
2018-08-12T15:25:00.590Z,25.30
2018-08-12T15:27:31.220Z,24.90
2018-08-12T15:30:01.782Z,26.20
2018-08-12T15:32:33.877Z,26.60
2018-08-12T15:35:06.180Z,27.20
2018-08-12T15:37:38.427Z,26.60
2018-08-12T15:40:14.517Z,26.40
2018-08-12T15:42:46.836Z,26.70
2018-08-12T15:45:19.829Z,27.10
2018-08-12T15:47:52.219Z,26.40
2018-08-12T15:50:24.245Z,26.00
2018-08-12T15:52:56.368Z,25.90
2018-08-12T15:55:28.513Z,27.00
2018-08-12T15:58:00.755Z,27.10
2018-08-12T16:00:32.980Z,27.00
2018-08-12T16:03:05.168Z,26.90
2018-08-12T16:05:39.204Z,26.70
2018-08-12T16:08:11.531Z,26.20
2018-08-12T16:10:44.086Z,25.90
2018-08-12T16:13:21.094Z,25.30
2018-08-12T16:15:54.164Z,25.10
2018-08-12T16:18:30.338Z,25.60
2018-08-12T16:21:03.386Z,25.40
2018-08-12T16:23:35.763Z,24.40
2018-08-12T16:26:08.112Z,23.90
2018-08-12T16:28:40.260Z,24.10
2018-08-12T16:31:13.112Z,24.00
2018-08-12T16:33:45.288Z,23.90
2018-08-12T16:36:17.528Z,25.20
2018-08-12T16:38:49.597Z,26.20
2018-08-12T16:41:21.780Z,27.20
2018-08-12T16:43:54.044Z,26.30
2018-08-12T16:46:26.543Z,25.40
2018-08-12T16:49:00.330Z,25.90
2018-08-12T16:51:35.904Z,26.80
2018-08-12T16:54:08.842Z,26.80
2018-08-12T16:56:40.928Z,26.70
2018-08-12T16:59:12.995Z,26.40
2018-08-12T17:01:45.322Z,26.60
2018-08-12T17:04:17.639Z,26.60
2018-08-12T17:06:49.833Z,27.10
2018-08-12T17:09:23.520Z,26.90
2018-08-12T17:11:55.583Z,26.50
2018-08-12T17:14:27.820Z,26.90
2018-08-12T17:17:00.050Z,27.40
2018-08-12T17:19:32.226Z,27.40
2018-08-12T17:22:05.571Z,27.40
2018-08-12T17:24:37.635Z,27.20
2018-08-12T17:27:10.093Z,26.50
2018-08-12T17:29:42.274Z,26.70
2018-08-12T17:32:14.348Z,27.10
2018-08-12T17:34:46.567Z,27.50
2018-08-12T17:37:18.678Z,25.90
2018-08-12T17:39:51.234Z,25.30
2018-08-12T17:42:23.364Z,25.80
2018-08-12T17:44:55.499Z,26.50
2018-08-12T17:47:28.010Z,27.50
2018-08-12T17:50:00.113Z,28.10
2018-08-12T17:52:32.256Z,27.70
2018-08-12T17:55:04.419Z,27.30
2018-08-12T17:57:37.068Z,27.70
2018-08-12T18:00:11.172Z,29.10
2018-08-12T18:02:43.356Z,28.50
2018-08-12T18:05:16.088Z,28.80
2018-08-12T18:07:48.357Z,28.10
2018-08-12T18:10:21.002Z,28.70
2018-08-12T18:12:53.097Z,28.40
2018-08-12T18:15:27.223Z,28.60
2018-08-12T18:18:00.876Z,28.40
2018-08-12T18:20:33.902Z,27.80
2018-08-12T18:23:07.421Z,27.40
2018-08-12T18:25:39.613Z,27.60
2018-08-12T18:28:11.962Z,27.70
2018-08-12T18:30:48.210Z,27.90
2018-08-12T18:33:20.407Z,28.90
2018-08-12T18:35:52.377Z,28.90
2018-08-12T18:38:24.508Z,27.90
2018-08-12T18:40:56.765Z,27.30
2018-08-12T18:43:32.097Z,26.70
2018-08-12T18:46:05.172Z,26.90
2018-08-12T18:48:37.446Z,27.30
2018-08-12T18:51:09.660Z,27.90
2018-08-12T18:53:41.684Z,27.90
2018-08-12T18:56:14.113Z,28.40
2018-08-12T18:58:46.372Z,28.30
2018-08-12T19:01:19.885Z,28.60
2018-08-12T19:03:52.050Z,29.00
2018-08-12T19:06:24.311Z,28.50
2018-08-12T19:08:56.669Z,27.60
2018-08-12T19:11:28.792Z,27.60
2018-08-12T19:14:00.889Z,28.20
2018-08-12T19:16:32.938Z,28.00
2018-08-12T19:19:05.167Z,28.70
2018-08-12T19:21:37.291Z,28.40
2018-08-12T19:24:09.452Z,28.60
2018-08-12T19:26:41.585Z,28.50
2018-08-12T19:29:13.716Z,28.20
2018-08-12T19:31:46.010Z,27.70
2018-08-12T19:34:18.368Z,27.80
2018-08-12T19:36:50.448Z,27.40
2018-08-12T19:39:22.714Z,27.70
2018-08-12T19:41:55.895Z,28.00
2018-08-12T19:44:28.554Z,28.00
2018-08-12T19:47:06.133Z,27.00
2018-08-12T19:49:38.429Z,27.10
2018-08-12T19:52:10.608Z,27.40
2018-08-12T19:54:42.630Z,27.40
2018-08-12T19:57:15.237Z,27.80
2018-08-12T19:59:47.356Z,27.40
2018-08-12T20:02:20.795Z,27.40
2018-08-12T20:04:56.230Z,27.30
2018-08-12T20:07:30.414Z,27.70
2018-08-12T20:10:03.399Z,27.70
2018-08-12T20:12:35.677Z,27.30
2018-08-12T20:15:10.179Z,27.40
2018-08-12T20:17:42.918Z,27.90
2018-08-12T20:20:15.218Z,27.80
2018-08-12T20:22:47.353Z,27.80
2018-08-12T20:25:19.685Z,27.50
2018-08-12T20:27:51.804Z,27.50
2018-08-12T20:30:23.963Z,27.60
2018-08-12T20:32:56.252Z,27.20
2018-08-12T20:35:28.482Z,27.30
2018-08-12T20:38:00.536Z,27.10
2018-08-12T20:40:32.701Z,26.80
2018-08-12T20:43:04.720Z,27.20
2018-08-12T20:45:36.829Z,27.10
2018-08-12T20:48:09.257Z,26.90
2018-08-12T20:50:41.590Z,25.90
2018-08-12T20:53:13.696Z,26.20
2018-08-12T20:55:45.811Z,27.00
2018-08-12T20:58:17.878Z,26.90
2018-08-12T21:00:49.961Z,26.80
2018-08-12T21:03:22.028Z,27.30
2018-08-12T21:05:54.221Z,27.60
2018-08-12T21:08:26.890Z,27.30
2018-08-12T21:10:59.252Z,27.30
2018-08-12T21:13:31.431Z,27.50
2018-08-12T21:16:03.547Z,27.40
2018-08-12T21:18:37.321Z,27.40
2018-08-12T21:21:09.397Z,27.70
2018-08-12T21:23:41.535Z,27.60
2018-08-12T21:26:13.826Z,27.60
2018-08-12T21:28:45.903Z,27.50
2018-08-12T21:31:18.080Z,27.50
2018-08-12T21:33:50.340Z,26.90
2018-08-12T21:36:22.605Z,27.10
2018-08-12T21:38:54.699Z,27.70
2018-08-12T21:41:26.829Z,27.50
2018-08-12T21:43:58.895Z,27.20
2018-08-12T21:46:31.005Z,27.40
2018-08-12T21:49:03.156Z,27.50
2018-08-12T21:51:35.474Z,26.90
2018-08-12T21:54:07.651Z,27.00
2018-08-12T21:56:39.789Z,26.80
2018-08-12T21:59:11.814Z,26.70
2018-08-12T22:01:44.176Z,27.40
2018-08-12T22:04:16.306Z,27.70
2018-08-12T22:06:48.512Z,27.10
2018-08-12T22:09:20.727Z,26.20
2018-08-12T22:11:52.760Z,25.50
2018-08-12T22:14:24.928Z,24.80
2018-08-12T22:16:56.974Z,24.80
2018-08-12T22:19:29.127Z,25.10
2018-08-12T22:22:01.307Z,25.70
2018-08-12T22:24:33.559Z,25.50
2018-08-12T22:27:05.979Z,25.50
2018-08-12T22:29:37.979Z,25.60
2018-08-12T22:32:10.267Z,25.90
2018-08-12T22:34:42.343Z,25.90
2018-08-12T22:37:14.728Z,25.50
2018-08-12T22:39:46.758Z,25.60
2018-08-12T22:42:18.859Z,25.50
2018-08-12T22:44:51.122Z,25.50
2018-08-12T22:47:23.677Z,25.10
2018-08-12T22:49:55.939Z,25.10
2018-08-12T22:52:29.172Z,24.90
2018-08-12T22:55:01.271Z,24.90
2018-08-12T22:57:33.399Z,24.70
2018-08-12T23:00:05.803Z,24.70
2018-08-12T23:02:38.016Z,24.90
2018-08-12T23:05:10.630Z,24.90
2018-08-12T23:07:42.818Z,24.80
2018-08-12T23:10:14.920Z,24.60
2018-08-12T23:12:47.054Z,24.30
2018-08-12T23:15:28.469Z,23.90
2018-08-12T23:18:01.480Z,24.00
2018-08-12T23:20:33.560Z,23.80
2018-08-12T23:23:05.752Z,23.60
2018-08-12T23:25:37.820Z,23.50
2018-08-12T23:28:09.918Z,23.50
2018-08-12T23:30:42.180Z,23.30
2018-08-12T23:33:14.170Z,23.30
2018-08-12T23:35:46.431Z,23.20
2018-08-12T23:38:18.552Z,23.30
2018-08-12T23:40:50.728Z,23.30
2018-08-12T23:43:24.007Z,23.10
2018-08-12T23:45:56.221Z,23.10
2018-08-12T23:48:28.867Z,23.10
2018-08-12T23:51:01.301Z,23.00
2018-08-12T23:53:34.800Z,22.80
2018-08-12T23:56:07.321Z,22.70
2018-08-12T23:58:39.642Z,22.60
